createdAt,value
2018-08-28T00:00:49.853Z,17.00
2018-08-28T00:03:18.250Z,16.90
2018-08-28T00:05:46.648Z,17.00
2018-08-28T00:08:15.027Z,17.00
2018-08-28T00:10:43.431Z,17.10
2018-08-28T00:13:11.984Z,17.00
2018-08-28T00:15:40.429Z,17.10
2018-08-28T00:18:08.876Z,17.10
2018-08-28T00:20:37.254Z,17.00
2018-08-28T00:23:05.754Z,17.00
2018-08-28T00:25:34.200Z,17.00
2018-08-28T00:28:02.646Z,17.00
2018-08-28T00:30:31.256Z,16.90
2018-08-28T00:32:59.633Z,16.90
2018-08-28T00:35:28.230Z,16.90
2018-08-28T00:37:56.629Z,17.00
2018-08-28T00:40:24.989Z,17.00
2018-08-28T00:42:53.383Z,16.90
2018-08-28T00:45:22.084Z,17.00
2018-08-28T00:47:50.616Z,17.10
2018-08-28T00:50:18.968Z,17.10
2018-08-28T00:52:47.423Z,17.10
2018-08-28T00:55:15.817Z,17.00
2018-08-28T00:57:44.190Z,17.00
2018-08-28T01:00:12.645Z,16.90
2018-08-28T01:02:41.044Z,16.80
2018-08-28T01:05:09.853Z,16.70
2018-08-28T01:07:38.610Z,16.70
2018-08-28T01:10:07.586Z,16.60
2018-08-28T01:12:36.210Z,16.60
2018-08-28T01:15:04.904Z,16.60
2018-08-28T01:17:34.005Z,16.60
2018-08-28T01:20:02.412Z,16.60
2018-08-28T01:22:30.793Z,16.50
2018-08-28T01:24:59.236Z,16.50
2018-08-28T01:27:27.630Z,16.40
2018-08-28T01:29:55.953Z,16.40
2018-08-28T01:32:24.350Z,16.50
2018-08-28T01:34:52.717Z,16.60
2018-08-28T01:37:21.095Z,16.40
2018-08-28T01:39:49.493Z,16.50
2018-08-28T01:42:21.931Z,16.50
2018-08-28T01:44:50.704Z,16.50
2018-08-28T01:47:19.556Z,16.60
2018-08-28T01:49:48.140Z,16.60
2018-08-28T01:52:17.078Z,16.80
2018-08-28T01:54:45.484Z,16.70
2018-08-28T01:57:13.976Z,16.90
2018-08-28T01:59:42.344Z,16.80
2018-08-28T02:02:10.839Z,16.60
2018-08-28T02:04:39.526Z,16.70
2018-08-28T02:07:08.145Z,16.70
2018-08-28T02:09:36.813Z,16.60
2018-08-28T02:12:05.893Z,16.60
2018-08-28T02:14:34.258Z,16.50
2018-08-28T02:17:02.832Z,16.60
2018-08-28T02:19:31.401Z,16.70
2018-08-28T02:21:59.736Z,16.70
2018-08-28T02:24:28.167Z,16.60
2018-08-28T02:26:56.573Z,16.70
2018-08-28T02:29:24.989Z,16.60
2018-08-28T02:31:53.819Z,16.50
2018-08-28T02:34:22.557Z,16.50
2018-08-28T02:36:51.633Z,16.40
2018-08-28T02:39:20.399Z,16.60
2018-08-28T02:41:49.477Z,16.50
2018-08-28T02:44:18.890Z,16.70
2018-08-28T02:46:47.842Z,16.80
2018-08-28T02:49:16.979Z,16.60
2018-08-28T02:51:46.083Z,16.50
2018-08-28T02:54:15.151Z,16.60
2018-08-28T02:56:44.459Z,16.40
2018-08-28T02:59:13.761Z,16.50
2018-08-28T03:01:42.780Z,16.70
2018-08-28T03:04:11.911Z,16.60
2018-08-28T03:06:40.936Z,16.70
2018-08-28T03:09:10.205Z,16.30
2018-08-28T03:11:39.563Z,16.10
2018-08-28T03:14:08.642Z,16.00
2018-08-28T03:16:37.655Z,16.10
2018-08-28T03:19:06.786Z,16.10
2018-08-28T03:21:36.359Z,16.40
2018-08-28T03:24:05.653Z,16.60
2018-08-28T03:26:34.984Z,16.50
2018-08-28T03:29:03.470Z,16.50
2018-08-28T03:31:31.910Z,16.60
2018-08-28T03:34:00.320Z,16.70
2018-08-28T03:36:29.056Z,16.70
2018-08-28T03:38:57.456Z,16.50
2018-08-28T03:41:26.025Z,16.30
2018-08-28T03:43:54.481Z,16.10
2018-08-28T03:46:23.208Z,16.00
2018-08-28T03:48:51.567Z,16.00
2018-08-28T03:51:19.964Z,16.10
2018-08-28T03:53:48.368Z,16.10
2018-08-28T03:56:16.832Z,16.00
2018-08-28T03:58:45.282Z,16.10
2018-08-28T04:01:13.749Z,16.30
2018-08-28T04:03:42.270Z,16.20
2018-08-28T04:06:10.754Z,16.30
2018-08-28T04:08:39.431Z,16.00
2018-08-28T04:11:07.874Z,15.90
2018-08-28T04:13:36.592Z,15.90
2018-08-28T04:16:05.044Z,15.70
2018-08-28T04:18:33.397Z,15.60
2018-08-28T04:21:02.532Z,15.60
2018-08-28T04:23:30.950Z,15.50
2018-08-28T04:25:59.346Z,15.60
2018-08-28T04:28:27.850Z,15.60
2018-08-28T04:30:56.289Z,15.50
2018-08-28T04:33:24.685Z,15.60
2018-08-28T04:35:53.092Z,15.50
2018-08-28T04:38:21.797Z,15.40
2018-08-28T04:40:50.640Z,15.40
2018-08-28T04:43:19.108Z,15.30
2018-08-28T04:45:47.618Z,15.30
2018-08-28T04:48:16.118Z,15.40
2018-08-28T04:50:44.500Z,15.60
2018-08-28T04:53:12.872Z,15.60
2018-08-28T04:55:41.501Z,15.70
2018-08-28T04:58:09.959Z,15.80
2018-08-28T05:00:38.725Z,15.90
2018-08-28T05:03:07.101Z,15.70
2018-08-28T05:05:35.532Z,16.00
2018-08-28T05:08:03.903Z,16.00
2018-08-28T05:10:32.638Z,16.00
2018-08-28T05:13:01.048Z,16.00
2018-08-28T05:15:29.761Z,16.00
2018-08-28T05:17:58.241Z,16.00
2018-08-28T05:20:27.003Z,16.20
2018-08-28T05:22:55.480Z,16.10
2018-08-28T05:25:24.223Z,16.00
2018-08-28T05:27:53.418Z,16.00
2018-08-28T05:30:22.381Z,16.00
2018-08-28T05:32:50.845Z,15.90
2018-08-28T05:35:19.349Z,15.80
2018-08-28T05:37:47.711Z,15.80
2018-08-28T05:40:16.093Z,16.10
2018-08-28T05:42:44.549Z,16.10
2018-08-28T05:45:12.922Z,16.10
2018-08-28T05:47:41.480Z,16.00
2018-08-28T05:50:09.942Z,16.10
2018-08-28T05:52:38.462Z,16.20
2018-08-28T05:55:07.230Z,16.20
2018-08-28T05:57:35.833Z,16.30
2018-08-28T06:00:04.565Z,16.20
2018-08-28T06:02:33.016Z,16.20
2018-08-28T06:05:01.545Z,16.20
2018-08-28T06:07:29.962Z,16.20
2018-08-28T06:09:58.872Z,16.40
2018-08-28T06:12:27.378Z,16.40
2018-08-28T06:14:55.857Z,16.30
2018-08-28T06:17:24.298Z,16.40
2018-08-28T06:19:52.768Z,16.40
2018-08-28T06:22:21.190Z,16.30
2018-08-28T06:24:49.610Z,16.30
2018-08-28T06:27:18.040Z,16.40
2018-08-28T06:29:46.513Z,16.50
2018-08-28T06:32:15.033Z,16.50
2018-08-28T06:34:43.482Z,16.40
2018-08-28T06:37:11.929Z,16.30
2018-08-28T06:39:40.373Z,16.30
2018-08-28T06:42:08.784Z,16.10
2018-08-28T06:44:37.500Z,16.30
2018-08-28T06:47:05.931Z,16.20
2018-08-28T06:49:34.461Z,16.20
2018-08-28T06:52:03.138Z,16.10
2018-08-28T06:54:31.654Z,16.10
2018-08-28T06:57:00.785Z,16.20
2018-08-28T06:59:29.224Z,16.30
2018-08-28T07:01:57.733Z,16.50
2018-08-28T07:04:26.201Z,16.60
2018-08-28T07:06:54.977Z,16.60
2018-08-28T07:09:24.220Z,16.60
2018-08-28T07:11:52.816Z,16.70
2018-08-28T07:14:21.518Z,16.70
2018-08-28T07:16:49.924Z,16.80
2018-08-28T07:19:18.283Z,16.90
2018-08-28T07:21:46.691Z,17.10
2018-08-28T07:24:15.973Z,17.10
2018-08-28T07:26:44.420Z,17.30
2018-08-28T07:29:12.826Z,17.70
2018-08-28T07:31:41.371Z,17.60
2018-08-28T07:34:09.808Z,17.70
2018-08-28T07:36:38.539Z,18.10
2018-08-28T07:39:07.193Z,18.30
2018-08-28T07:41:35.717Z,18.30
2018-08-28T07:44:04.211Z,18.00
2018-08-28T07:46:32.607Z,17.90
2018-08-28T07:49:00.980Z,18.30
2018-08-28T07:51:29.464Z,18.20
2018-08-28T07:53:57.930Z,18.20
2018-08-28T07:56:26.320Z,18.00
2018-08-28T07:58:54.759Z,18.20
2018-08-28T08:01:23.294Z,18.50
2018-08-28T08:03:51.857Z,18.60
2018-08-28T08:06:20.223Z,18.70
2018-08-28T08:08:48.980Z,18.80
2018-08-28T08:11:17.409Z,19.00
2018-08-28T08:13:45.798Z,19.00
2018-08-28T08:16:14.247Z,19.20
2018-08-28T08:18:42.694Z,19.30
2018-08-28T08:21:11.264Z,19.30
2018-08-28T08:23:39.692Z,19.30
2018-08-28T08:26:08.156Z,19.50
2018-08-28T08:28:36.525Z,19.70
2018-08-28T08:31:04.952Z,19.60
2018-08-28T08:33:33.626Z,19.90
2018-08-28T08:36:01.996Z,19.90
2018-08-28T08:38:30.427Z,20.10
2018-08-28T08:40:58.869Z,20.40
2018-08-28T08:43:27.533Z,20.70
2018-08-28T08:45:55.944Z,20.70
2018-08-28T08:48:24.584Z,20.80
2018-08-28T08:50:53.173Z,20.60
2018-08-28T08:53:21.916Z,20.70
2018-08-28T08:55:50.777Z,20.90
2018-08-28T08:58:19.521Z,20.90
2018-08-28T09:00:48.046Z,21.40
2018-08-28T09:03:16.461Z,21.70
2018-08-28T09:05:45.244Z,21.20
2018-08-28T09:08:13.708Z,21.10
2018-08-28T09:10:42.113Z,21.10
2018-08-28T09:13:10.530Z,21.50
2018-08-28T09:15:38.984Z,21.60
2018-08-28T09:18:07.358Z,21.80
2018-08-28T09:20:35.742Z,21.80
2018-08-28T09:23:04.105Z,21.90
2018-08-28T09:25:32.540Z,22.00
2018-08-28T09:28:00.933Z,21.90
2018-08-28T09:30:29.278Z,22.00
2018-08-28T09:32:57.656Z,22.00
2018-08-28T09:35:26.048Z,22.10
2018-08-28T09:37:54.566Z,22.10
2018-08-28T09:40:23.215Z,22.30
2018-08-28T09:42:51.621Z,22.20
2018-08-28T09:45:19.978Z,21.80
2018-08-28T09:47:48.411Z,21.30
2018-08-28T09:50:17.229Z,21.40
2018-08-28T09:52:45.562Z,21.50
2018-08-28T09:55:14.052Z,21.30
2018-08-28T09:57:42.479Z,21.60
2018-08-28T10:00:16.161Z,22.00
2018-08-28T10:02:44.635Z,21.70
2018-08-28T10:05:12.993Z,21.40
2018-08-28T10:07:41.387Z,21.40
2018-08-28T10:10:09.792Z,21.10
2018-08-28T10:12:38.189Z,21.20
2018-08-28T10:15:06.789Z,21.40
2018-08-28T10:17:35.269Z,21.30
2018-08-28T10:20:04.131Z,21.70
2018-08-28T10:22:32.936Z,22.00
2018-08-28T10:25:01.376Z,21.90
2018-08-28T10:27:29.808Z,21.90
2018-08-28T10:29:58.283Z,22.20
2018-08-28T10:32:26.643Z,22.10
2018-08-28T10:34:55.091Z,22.10
2018-08-28T10:37:23.610Z,21.90
2018-08-28T10:39:52.100Z,21.90
2018-08-28T10:42:20.552Z,21.90
2018-08-28T10:44:48.964Z,21.50
2018-08-28T10:47:17.353Z,21.20
2018-08-28T10:49:45.680Z,21.20
2018-08-28T10:52:14.454Z,21.20
2018-08-28T10:54:42.809Z,21.20
2018-08-28T10:57:11.993Z,21.00
2018-08-28T10:59:40.386Z,20.90
2018-08-28T11:02:08.780Z,20.70
2018-08-28T11:04:37.349Z,20.70
2018-08-28T11:07:05.654Z,20.70
2018-08-28T11:09:34.372Z,20.60
2018-08-28T11:12:02.792Z,20.70
2018-08-28T11:14:31.201Z,20.70
2018-08-28T11:16:59.507Z,20.60
2018-08-28T11:19:27.907Z,20.50
2018-08-28T11:21:56.625Z,20.70
2018-08-28T11:24:25.248Z,20.70
2018-08-28T11:26:53.805Z,20.70
2018-08-28T11:29:22.183Z,20.70
2018-08-28T11:31:50.724Z,20.50
2018-08-28T11:34:20.006Z,20.60
2018-08-28T11:36:48.396Z,20.60
2018-08-28T11:39:16.828Z,20.90
2018-08-28T11:41:45.156Z,20.90
2018-08-28T11:44:13.831Z,20.90
2018-08-28T11:46:42.261Z,20.70
2018-08-28T11:49:10.896Z,20.60
2018-08-28T11:51:39.276Z,20.60
2018-08-28T11:54:07.871Z,20.60
2018-08-28T11:56:36.552Z,20.70
2018-08-28T11:59:04.988Z,20.70
2018-08-28T12:01:33.385Z,20.90
2018-08-28T12:04:02.113Z,20.90
2018-08-28T12:06:30.514Z,20.50
2018-08-28T12:08:58.945Z,20.50
2018-08-28T12:11:27.289Z,20.90
2018-08-28T12:13:55.680Z,20.60
2018-08-28T12:16:24.130Z,20.70
2018-08-28T12:18:52.535Z,21.10
2018-08-28T12:21:20.945Z,20.90
2018-08-28T12:23:49.380Z,21.20
2018-08-28T12:26:18.050Z,21.20
2018-08-28T12:28:46.476Z,21.20
2018-08-28T12:31:15.104Z,21.10
2018-08-28T12:33:43.747Z,20.70
2018-08-28T12:36:12.155Z,20.80
2018-08-28T12:38:40.600Z,20.60
2018-08-28T12:41:08.932Z,20.80
2018-08-28T12:43:37.496Z,20.70
2018-08-28T12:46:06.315Z,20.70
2018-08-28T12:48:34.703Z,20.70
2018-08-28T12:51:03.122Z,20.70
2018-08-28T12:53:31.447Z,20.80
2018-08-28T12:55:59.827Z,20.90
2018-08-28T12:58:28.286Z,20.90
2018-08-28T13:00:56.681Z,21.20
2018-08-28T13:03:25.476Z,21.10
2018-08-28T13:05:54.225Z,21.00
2018-08-28T13:08:22.665Z,20.80
2018-08-28T13:10:51.376Z,20.80
2018-08-28T13:13:19.933Z,21.00
2018-08-28T13:15:48.295Z,21.00
2018-08-28T13:18:18.021Z,21.00
2018-08-28T13:20:46.408Z,21.00
2018-08-28T13:23:15.252Z,20.90
2018-08-28T13:25:43.708Z,20.90
2018-08-28T13:28:12.588Z,21.00
2018-08-28T13:30:41.448Z,21.20
2018-08-28T13:33:10.545Z,21.20
2018-08-28T13:35:39.122Z,20.90
2018-08-28T13:38:07.632Z,20.90
2018-08-28T13:40:36.282Z,20.90
2018-08-28T13:43:05.059Z,20.90
2018-08-28T13:45:33.918Z,20.90
2018-08-28T13:48:02.387Z,20.90
2018-08-28T13:50:31.027Z,21.10
2018-08-28T13:52:59.509Z,20.90
2018-08-28T13:55:28.517Z,20.90
2018-08-28T13:57:57.139Z,21.00
2018-08-28T14:00:25.913Z,21.00
2018-08-28T14:02:54.707Z,20.80
2018-08-28T14:05:23.345Z,20.90
2018-08-28T14:07:51.874Z,21.20
2018-08-28T14:10:20.718Z,21.50
2018-08-28T14:12:49.174Z,21.60
2018-08-28T14:15:17.931Z,21.60
2018-08-28T14:17:46.583Z,22.00
2018-08-28T14:20:15.241Z,21.90
2018-08-28T14:22:43.760Z,21.90
2018-08-28T14:25:12.626Z,22.10
2018-08-28T14:27:41.015Z,21.90
2018-08-28T14:30:10.047Z,22.20
2018-08-28T14:32:39.146Z,22.40
2018-08-28T14:35:07.847Z,22.00
2018-08-28T14:37:37.061Z,21.90
2018-08-28T14:40:05.648Z,21.80
2018-08-28T14:42:34.371Z,22.20
2018-08-28T14:45:03.261Z,22.00
2018-08-28T14:47:31.991Z,22.10
2018-08-28T14:50:00.884Z,22.00
2018-08-28T14:52:29.435Z,22.30
2018-08-28T14:54:57.859Z,22.40
2018-08-28T14:57:27.158Z,22.00
2018-08-28T14:59:55.856Z,22.10
2018-08-28T15:02:24.572Z,22.30
2018-08-28T15:04:53.376Z,22.20
2018-08-28T15:07:21.852Z,22.30
2018-08-28T15:09:50.542Z,22.40
2018-08-28T15:12:19.049Z,22.50
2018-08-28T15:14:48.414Z,22.50
2018-08-28T15:17:17.333Z,22.70
2018-08-28T15:19:45.674Z,22.50
2018-08-28T15:22:14.321Z,22.20
2018-08-28T15:24:42.777Z,22.40
2018-08-28T15:27:11.331Z,22.40
2018-08-28T15:29:41.681Z,22.20
2018-08-28T15:32:11.558Z,22.10
2018-08-28T15:34:39.985Z,22.10
2018-08-28T15:37:08.517Z,22.30
2018-08-28T15:39:36.946Z,22.40
2018-08-28T15:42:05.716Z,22.20
2018-08-28T15:44:34.245Z,22.50
2018-08-28T15:47:02.976Z,22.60
2018-08-28T15:49:31.651Z,22.70
2018-08-28T15:52:00.070Z,22.60
2018-08-28T15:54:28.663Z,22.60
2018-08-28T15:56:57.391Z,22.50
2018-08-28T15:59:26.298Z,22.40
2018-08-28T16:01:56.715Z,22.40
2018-08-28T16:04:25.083Z,22.40
2018-08-28T16:06:53.798Z,22.30
2018-08-28T16:09:23.365Z,22.30
2018-08-28T16:11:51.887Z,22.10
2018-08-28T16:14:20.579Z,22.10
2018-08-28T16:16:49.556Z,22.10
2018-08-28T16:19:18.239Z,22.30
2018-08-28T16:21:54.142Z,22.20
2018-08-28T16:24:23.138Z,22.30
2018-08-28T16:26:52.050Z,22.30
2018-08-28T16:29:20.769Z,22.20
2018-08-28T16:31:49.694Z,22.30
2018-08-28T16:34:18.294Z,22.20
2018-08-28T16:36:46.895Z,22.00
2018-08-28T16:39:15.626Z,22.00
2018-08-28T16:41:44.167Z,22.00
2018-08-28T16:44:12.877Z,22.10
2018-08-28T16:46:42.614Z,22.20
2018-08-28T16:49:11.455Z,22.00
2018-08-28T16:51:40.278Z,22.00
2018-08-28T16:54:09.469Z,22.00
2018-08-28T16:56:38.347Z,22.00
2018-08-28T16:59:07.282Z,21.90
2018-08-28T17:01:35.964Z,22.00
2018-08-28T17:04:04.597Z,21.90
2018-08-28T17:06:33.167Z,21.90
2018-08-28T17:09:01.701Z,21.90
2018-08-28T17:11:30.076Z,21.80
2018-08-28T17:13:58.446Z,21.70
2018-08-28T17:16:26.870Z,21.60
2018-08-28T17:18:55.500Z,21.80
2018-08-28T17:21:24.219Z,21.80
2018-08-28T17:23:52.629Z,21.80
2018-08-28T17:26:21.019Z,21.80
2018-08-28T17:28:49.476Z,21.80
2018-08-28T17:31:18.002Z,21.90
2018-08-28T17:33:46.602Z,21.90
2018-08-28T17:36:15.032Z,21.80
2018-08-28T17:38:43.699Z,21.80
2018-08-28T17:41:12.616Z,21.80
2018-08-28T17:43:40.993Z,21.70
2018-08-28T17:46:09.457Z,21.60
2018-08-28T17:48:38.392Z,21.60
2018-08-28T17:51:06.974Z,21.60
2018-08-28T17:53:36.783Z,21.60
2018-08-28T17:56:05.286Z,21.70
2018-08-28T17:58:33.930Z,21.60
2018-08-28T18:01:02.560Z,21.60
2018-08-28T18:03:31.189Z,21.50
2018-08-28T18:05:59.607Z,21.60
2018-08-28T18:08:28.369Z,21.60
2018-08-28T18:10:56.873Z,21.60
2018-08-28T18:13:25.696Z,21.50
2018-08-28T18:15:54.181Z,21.50
2018-08-28T18:18:23.127Z,21.40
2018-08-28T18:20:53.822Z,21.30
2018-08-28T18:23:22.246Z,21.20
2018-08-28T18:25:50.688Z,21.20
2018-08-28T18:28:19.147Z,21.20
2018-08-28T18:30:47.849Z,21.20
2018-08-28T18:33:16.935Z,21.20
2018-08-28T18:35:45.405Z,21.20
2018-08-28T18:38:13.942Z,21.20
2018-08-28T18:40:42.510Z,21.10
2018-08-28T18:43:11.237Z,20.90
2018-08-28T18:45:39.844Z,20.80
2018-08-28T18:48:08.219Z,20.70
2018-08-28T18:50:36.687Z,20.70
2018-08-28T18:53:05.124Z,20.70
2018-08-28T18:55:33.677Z,20.70
2018-08-28T18:58:02.428Z,20.70
2018-08-28T19:00:31.063Z,20.70
2018-08-28T19:02:59.644Z,20.60
2018-08-28T19:12:15.210Z,20.30
2018-08-28T19:14:44.244Z,20.30
2018-08-28T19:17:12.689Z,20.20
2018-08-28T19:19:41.158Z,20.20
2018-08-28T19:22:09.819Z,20.10
2018-08-28T19:24:38.666Z,20.10
2018-08-28T19:27:07.325Z,20.10
2018-08-28T19:29:36.167Z,20.00
2018-08-28T19:32:04.742Z,20.00
2018-08-28T19:34:33.420Z,20.00
2018-08-28T19:37:01.857Z,20.00
2018-08-28T19:39:30.343Z,19.90
2018-08-28T19:41:58.843Z,19.80
2018-08-28T19:44:27.353Z,19.80
2018-08-28T19:46:56.012Z,19.70
2018-08-28T19:49:24.390Z,19.70
2018-08-28T19:51:53.448Z,19.60
2018-08-28T19:54:22.106Z,19.70
2018-08-28T19:56:50.709Z,19.60
2018-08-28T19:59:19.271Z,19.40
2018-08-28T20:01:47.661Z,19.50
2018-08-28T20:04:16.065Z,19.50
2018-08-28T20:06:44.530Z,19.50
2018-08-28T20:09:12.928Z,19.30
2018-08-28T20:11:41.418Z,19.40
2018-08-28T20:14:09.809Z,19.40
2018-08-28T20:16:38.187Z,19.30
2018-08-28T20:19:06.613Z,19.30
2018-08-28T20:21:35.029Z,19.30
2018-08-28T20:24:03.477Z,19.20
2018-08-28T20:26:31.943Z,19.20
2018-08-28T20:29:00.300Z,19.20
2018-08-28T20:31:28.727Z,19.10
2018-08-28T20:33:57.132Z,19.10
2018-08-28T20:36:25.528Z,19.10
2018-08-28T20:38:53.947Z,19.00
2018-08-28T20:41:22.396Z,18.90
2018-08-28T20:43:50.867Z,18.90
2018-08-28T20:46:19.306Z,18.80
2018-08-28T20:48:47.715Z,18.80
2018-08-28T20:51:16.081Z,18.80
2018-08-28T20:53:44.534Z,18.80
2018-08-28T20:57:16.085Z,18.80
2018-08-28T20:59:44.568Z,18.80
2018-08-28T21:02:12.993Z,18.80
2018-08-28T21:04:41.475Z,18.70
2018-08-28T21:07:09.973Z,18.80
2018-08-28T21:09:38.379Z,18.80
2018-08-28T21:12:06.781Z,18.70
2018-08-28T21:14:35.201Z,18.70
2018-08-28T21:17:04.221Z,18.60
2018-08-28T21:19:32.864Z,18.60
2018-08-28T21:22:01.247Z,18.60
2018-08-28T21:24:29.680Z,18.60
2018-08-28T21:26:58.083Z,18.50
2018-08-28T21:29:26.624Z,18.50
2018-08-28T21:31:54.869Z,18.40
2018-08-28T21:34:23.239Z,18.40
2018-08-28T21:36:51.656Z,18.50
2018-08-28T21:39:20.048Z,18.40
2018-08-28T21:41:48.385Z,18.40
2018-08-28T21:44:16.739Z,18.40
2018-08-28T21:46:45.143Z,18.50
2018-08-28T21:49:13.486Z,18.50
2018-08-28T21:51:41.911Z,18.40
2018-08-28T21:54:10.397Z,18.40
2018-08-28T21:56:38.778Z,18.40
2018-08-28T21:59:07.163Z,18.30
2018-08-28T22:01:35.633Z,18.20
2018-08-28T22:04:04.015Z,18.20
2018-08-28T22:07:41.562Z,18.20
2018-08-28T22:10:10.328Z,18.20
2018-08-28T22:12:38.819Z,18.20
2018-08-28T22:15:14.343Z,18.20
2018-08-28T22:17:43.298Z,18.20
2018-08-28T22:20:11.769Z,18.10
2018-08-28T22:22:40.164Z,18.10
2018-08-28T22:25:08.544Z,18.10
2018-08-28T22:27:36.894Z,18.00
2018-08-28T22:30:06.565Z,18.10
2018-08-28T22:32:34.939Z,18.10
2018-08-28T22:35:03.317Z,18.10
2018-08-28T22:37:31.671Z,18.10
2018-08-28T22:40:00.087Z,18.10
2018-08-28T22:42:28.487Z,18.10
2018-08-28T22:44:56.798Z,17.90
2018-08-28T22:47:25.160Z,18.00
2018-08-28T22:49:53.576Z,17.80
2018-08-28T22:52:21.968Z,17.90
2018-08-28T22:54:50.391Z,17.80
2018-08-28T22:57:18.785Z,17.90
2018-08-28T22:59:47.166Z,17.90
2018-08-28T23:02:15.548Z,17.80
2018-08-28T23:04:43.921Z,17.70
2018-08-28T23:07:12.300Z,17.70
2018-08-28T23:09:40.655Z,17.70
2018-08-28T23:12:09.088Z,17.50
2018-08-28T23:14:37.387Z,17.60
2018-08-28T23:17:05.745Z,17.50
2018-08-28T23:19:34.123Z,17.60
2018-08-28T23:22:02.506Z,17.50
2018-08-28T23:24:30.856Z,17.50
2018-08-28T23:26:59.225Z,17.50
2018-08-28T23:29:27.555Z,17.50
2018-08-28T23:31:55.941Z,17.60
2018-08-28T23:34:24.286Z,17.60
2018-08-28T23:36:53.502Z,17.70
2018-08-28T23:39:21.901Z,17.50
2018-08-28T23:41:50.241Z,17.60
2018-08-28T23:44:18.608Z,17.60
2018-08-28T23:46:46.987Z,17.60
2018-08-28T23:49:15.327Z,17.60
2018-08-28T23:51:43.721Z,17.60
2018-08-28T23:54:12.044Z,17.70
2018-08-28T23:56:40.374Z,17.50
2018-08-28T23:59:08.846Z,17.50
